X  Fechar Metar - Info de Aeroporto     LIPX Verona-Villafranca Valerio Catullo Airport
Temperatura
29°C Temperatura
20°C Ptº Orvalho
58% Humidade



Vento
5 KM/H
3 MPH
1 M/S
3 NÓS



160°
SSL
Condições Atuais

Limpo Limpo
Pressão 1018.96 (hPa) - 30.09 (inHg)
Visibilidade 5.6 (milha) - 9 (km)
Aeroporto
Código-Aeropoto LIPX

Localização: Verona-Villafranca Valerio Catullo Airport
Distância: 0 (km)

Metar:
LIPX 201050Z 16003KT 110V210 9000 NSC 29/20 Q1019

Hora: 20-06-2024 10:50 CEST